Time;durP1;ratioP1;P1;durP2;ratioP2;P2;SDS_P1;SDS_P2;PMS_P1;PMS_P2;Temp;Humidity;BMP_temperature;BMP_pressure;BME280_temperature;BME280_humidity;BME280_pressure;Samples;Min_cycle;Max_cycle;Signal;HPM_P1;HPM_P2
2021/09/20 00:01:35;;;;;;;2.45;1.52;;;12.80;99.90;;;;;;6212286;28;20034;-79
2021/09/20 00:04:36;;;;;;;1.70;1.13;;;;;;;;;;6229076;28;20084;-80
2021/09/20 00:07:37;;;;;;;2.65;1.15;;;12.80;99.90;;;;;;6212329;28;20104;-80
2021/09/20 00:10:38;;;;;;;5.00;1.37;;;;;;;;;;6247128;28;20029;-79
2021/09/20 00:13:39;;;;;;;1.45;1.40;;;;;;;;;;6246305;28;20786;-79
2021/09/20 00:16:40;;;;;;;2.20;2.00;;;;;;;;;;6245678;28;20045;-79
2021/09/20 00:19:41;;;;;;;1.75;1.60;;;;;;;;;;6228862;28;20030;-80
2021/09/20 00:22:42;;;;;;;2.00;1.80;;;;;;;;;;6229032;28;20060;-80
2021/09/20 00:25:43;;;;;;;5.60;1.70;;;12.80;99.90;;;;;;6246566;28;20029;-79
2021/09/20 00:28:44;;;;;;;1.60;1.50;;;;;;;;;;6211918;28;20474;-79
2021/09/20 00:31:45;;;;;;;3.15;1.70;;;12.90;99.90;;;;;;6211959;28;20024;-79
2021/09/20 00:34:45;;;;;;;1.42;1.25;;;13.00;99.90;;;;;;6212276;28;20387;-79
2021/09/20 00:37:46;;;;;;;1.42;1.35;;;13.10;99.90;;;;;;6228369;28;20017;-79
2021/09/20 00:40:46;;;;;;;3.38;1.30;;;13.00;99.90;;;;;;6228707;28;20034;-80
2021/09/20 00:43:47;;;;;;;2.63;1.75;;;13.00;99.90;;;;;;6228134;28;20026;-79
2021/09/20 00:46:47;;;;;;;1.60;1.50;;;12.10;99.90;;;;;;6228054;28;20041;-80
2021/09/20 00:49:48;;;;;;;1.80;1.33;;;13.10;99.90;;;;;;6227925;28;20447;-79
2021/09/20 00:52:49;;;;;;;2.67;1.60;;;13.00;99.90;;;;;;6212030;28;20021;-79
2021/09/20 00:55:49;;;;;;;1.73;1.42;;;13.30;99.90;;;;;;6211936;28;20046;-80
2021/09/20 00:58:50;;;;;;;1.70;1.60;;;12.90;99.90;;;;;;6195651;28;20534;-79
2021/09/20 01:01:50;;;;;;;1.65;1.55;;;13.20;99.90;;;;;;6227428;28;20022;-79
2021/09/20 01:04:51;;;;;;;4.50;1.70;;;13.10;99.90;;;;;;6227595;28;20021;-79
2021/09/20 01:07:51;;;;;;;3.03;1.90;;;13.20;99.90;;;;;;6228153;28;20941;-80
2021/09/20 01:10:52;;;;;;;2.15;1.55;;;13.10;99.90;;;;;;6227437;28;20030;-79
2021/09/20 01:13:53;;;;;;;3.15;1.90;;;;;;;;;;6227341;28;20030;-80
2021/09/20 01:16:54;;;;;;;2.80;1.70;;;13.10;99.90;;;;;;6227360;28;20048;-80
2021/09/20 01:19:54;;;;;;;2.67;1.48;;;13.20;99.90;;;;;;6211854;28;20045;-80
2021/09/20 01:23:04;;;;;;;3.95;2.00;;;13.10;99.90;;;;;;6244795;28;20097;-79
2021/09/20 01:26:05;;;;;;;3.75;1.90;;;13.30;99.90;;;;;;6211121;28;20065;-80
2021/09/20 01:29:06;;;;;;;3.10;1.90;;;13.00;99.90;;;;;;6203152;28;20029;-80
2021/09/20 01:32:07;;;;;;;1.40;1.30;;;12.90;99.90;;;;;;6245095;28;20030;-80
2021/09/20 01:35:08;;;;;;;2.80;1.75;;;13.00;99.90;;;;;;6210463;28;20069;-80
2021/09/20 01:38:08;;;;;;;3.80;1.98;;;12.90;99.90;;;;;;6226963;28;20534;-80
2021/09/20 01:41:09;;;;;;;3.60;1.88;;;12.90;99.90;;;;;;6227319;28;20337;-79
2021/09/20 01:44:10;;;;;;;1.73;1.55;;;12.80;99.90;;;;;;6226660;28;20029;-80
2021/09/20 01:47:10;;;;;;;1.80;1.70;;;12.50;99.90;;;;;;6226450;28;20025;-81
2021/09/20 01:50:12;;;;;;;2.00;1.60;;;13.00;99.90;;;;;;6210052;28;20033;-80
2021/09/20 01:53:13;;;;;;;3.58;1.77;;;12.90;99.90;;;;;;6210308;28;20144;-80
2021/09/20 01:56:14;;;;;;;3.50;2.03;;;13.20;99.90;;;;;;6209938;28;20503;-80
2021/09/20 01:59:15;;;;;;;1.90;1.80;;;;;;;;;;6218641;28;20037;-80
2021/09/20 02:02:15;;;;;;;1.77;1.67;;;13.00;99.90;;;;;;6226786;28;20064;-80
2021/09/20 02:05:16;;;;;;;2.08;1.63;;;13.10;99.90;;;;;;6210314;28;20043;-80
2021/09/20 02:08:17;;;;;;;2.47;1.80;;;13.00;99.90;;;;;;6243793;28;20113;-80
2021/09/20 02:11:18;;;;;;;2.67;1.90;;;13.20;99.90;;;;;;6225810;28;20040;-80
2021/09/20 02:14:18;;;;;;;2.22;1.42;;;13.00;99.90;;;;;;6209551;28;20116;-80
2021/09/20 02:17:19;;;;;;;1.65;1.55;;;12.90;99.90;;;;;;6225418;28;20468;-80
2021/09/20 02:20:20;;;;;;;2.22;1.85;;;;;;;;;;6192882;28;20080;-79
2021/09/20 02:23:20;;;;;;;2.10;1.63;;;12.90;99.90;;;;;;6209036;28;20018;-80
2021/09/20 02:26:21;;;;;;;3.55;1.70;;;12.80;99.90;;;;;;6202498;28;20033;-80
2021/09/20 02:29:22;;;;;;;3.65;1.60;;;13.00;99.90;;;;;;6226310;28;20017;-80
2021/09/20 02:32:22;;;;;;;1.95;1.75;;;13.30;99.90;;;;;;6226037;28;20033;-80
2021/09/20 02:35:23;;;;;;;3.70;1.80;;;13.00;99.90;;;;;;6225712;28;20067;-80
2021/09/20 02:38:23;;;;;;;3.17;1.90;;;13.20;99.90;;;;;;6226044;28;20033;-80
2021/09/20 02:41:24;;;;;;;2.20;2.00;;;12.90;99.90;;;;;;6225821;28;20063;-80
2021/09/20 02:44:24;;;;;;;2.28;2.08;;;13.00;99.90;;;;;;6225820;28;20108;-79
2021/09/20 02:47:26;;;;;;;2.90;1.90;;;;;;;;;;6208954;28;20458;-80
2021/09/20 02:50:26;;;;;;;2.60;1.92;;;13.20;99.90;;;;;;6243031;28;20032;-80
2021/09/20 02:53:28;;;;;;;2.40;2.20;;;13.10;99.90;;;;;;6225823;28;20655;-80
2021/09/20 02:56:28;;;;;;;1.88;1.77;;;13.10;99.90;;;;;;6208814;28;20029;-80
2021/09/20 02:59:29;;;;;;;1.90;1.80;;;13.10;99.90;;;;;;6243246;28;20034;-80
2021/09/20 03:02:29;;;;;;;1.77;1.67;;;13.20;99.90;;;;;;6243009;28;20030;-79
2021/09/20 03:05:30;;;;;;;2.10;1.90;;;13.20;99.90;;;;;;6208832;28;20021;-80
2021/09/20 03:08:30;;;;;;;2.78;2.10;;;13.30;99.90;;;;;;6225375;28;20026;-80
2021/09/20 03:11:31;;;;;;;2.30;2.10;;;13.00;99.90;;;;;;6225377;28;20501;-79
2021/09/20 03:14:32;;;;;;;3.50;2.20;;;13.00;99.90;;;;;;6243163;28;20041;-79
2021/09/20 03:17:32;;;;;;;3.50;2.50;;;13.00;99.90;;;;;;6215083;28;20108;-80
2021/09/20 03:20:33;;;;;;;3.03;1.85;;;12.80;99.90;;;;;;6200505;28;20040;-80
2021/09/20 03:23:34;;;;;;;3.92;2.13;;;;;;;;;;6200911;28;20022;-80
2021/09/20 03:26:34;;;;;;;3.17;2.20;;;13.10;99.90;;;;;;6218628;28;20034;-79
2021/09/20 03:29:35;;;;;;;2.55;2.08;;;13.00;99.90;;;;;;6200487;28;20025;-80
2021/09/20 03:32:36;;;;;;;3.80;2.70;;;;;;;;;;6193657;28;20018;-80
2021/09/20 03:35:37;;;;;;;6.28;2.40;;;13.00;99.90;;;;;;6205563;28;20040;-80
2021/09/20 03:38:37;;;;;;;3.55;2.80;;;13.00;99.90;;;;;;6204945;28;20025;-80
2021/09/20 03:41:38;;;;;;;2.83;2.28;;;13.10;99.90;;;;;;6205777;28;20042;-80
2021/09/20 03:44:38;;;;;;;2.50;2.10;;;13.00;99.90;;;;;;6205393;28;20030;-80
2021/09/20 03:47:39;;;;;;;5.65;1.90;;;;;;;;;;6188747;28;20097;-80
2021/09/20 03:50:40;;;;;;;2.58;1.98;;;13.10;99.90;;;;;;6205262;28;20014;-79
2021/09/20 03:53:41;;;;;;;3.35;1.92;;;12.80;99.90;;;;;;6222893;28;20053;-79
2021/09/20 03:56:41;;;;;;;3.00;1.75;;;13.10;99.90;;;;;;6204933;28;20092;-79
2021/09/20 03:59:42;;;;;;;5.60;1.95;;;;;;;;;;6222460;28;20072;-80
2021/09/20 04:02:43;;;;;;;2.58;2.03;;;;;;;;;;6205351;28;20061;-80
2021/09/20 04:05:44;;;;;;;3.35;2.20;;;12.90;99.90;;;;;;6188678;28;20026;-79
2021/09/20 04:08:45;;;;;;;3.10;2.20;;;;;;;;;;6204904;28;20025;-79
2021/09/20 04:11:46;;;;;;;2.83;2.10;;;;;;;;;;6204519;28;20026;-80
2021/09/20 04:14:46;;;;;;;2.00;1.90;;;13.00;99.90;;;;;;6204605;28;20034;-79
2021/09/20 04:17:47;;;;;;;1.88;1.77;;;13.10;99.90;;;;;;6221855;28;20108;-79
2021/09/20 04:20:49;;;;;;;2.33;2.13;;;;;;;;;;6188203;28;20033;-80
2021/09/20 04:23:49;;;;;;;2.63;2.40;;;13.10;99.90;;;;;;6204545;28;20068;-80
2021/09/20 04:26:50;;;;;;;2.95;2.40;;;13.00;99.90;;;;;;6171479;28;20407;-80
2021/09/20 04:29:50;;;;;;;4.93;2.20;;;13.00;99.90;;;;;;6204163;28;20026;-80
2021/09/20 04:32:51;;;;;;;3.13;2.47;;;13.00;99.90;;;;;;6192624;28;20034;-80
2021/09/20 04:35:51;;;;;;;3.08;2.22;;;13.00;99.90;;;;;;6188125;28;20034;-80
2021/09/20 04:38:52;;;;;;;2.03;1.85;;;13.20;99.90;;;;;;6203787;28;20456;-80
2021/09/20 04:41:53;;;;;;;4.38;2.50;;;13.00;99.90;;;;;;6167654;28;20100;-80
2021/09/20 04:44:53;;;;;;;4.78;2.78;;;;;;;;;;6203417;28;20018;-81
2021/09/20 04:47:54;;;;;;;2.28;2.17;;;13.20;99.90;;;;;;6204585;28;20392;-81
2021/09/20 04:50:57;;;;;;;2.53;2.20;;;13.50;99.90;;;;;;6186886;28;20052;-81
2021/09/20 04:53:58;;;;;;;3.95;2.20;;;13.60;99.90;;;;;;6204190;28;20042;-79
2021/09/20 04:56:58;;;;;;;4.95;2.80;;;13.40;99.90;;;;;;6186269;28;20103;-78
2021/09/20 04:59:59;;;;;;;6.18;3.22;;;13.40;99.90;;;;;;6186739;28;20030;-80
2021/09/20 05:03:00;;;;;;;3.60;2.65;;;;;;;;;;6203746;28;20026;-79
2021/09/20 05:06:01;;;;;;;2.72;2.42;;;13.20;99.90;;;;;;6220838;28;20029;-79
2021/09/20 05:09:03;;;;;;;2.88;2.40;;;13.30;99.90;;;;;;6203684;28;20440;-79
2021/09/20 05:12:03;;;;;;;3.88;2.47;;;13.30;99.90;;;;;;6186950;28;20483;-79
2021/09/20 05:15:05;;;;;;;2.55;2.30;;;13.10;99.90;;;;;;6202605;28;20066;-83
2021/09/20 05:18:05;;;;;;;2.40;2.20;;;13.30;99.90;;;;;;6179504;28;20103;-79
2021/09/20 05:21:06;;;;;;;2.92;2.22;;;13.10;99.90;;;;;;6228335;28;20459;-79
2021/09/20 05:24:06;;;;;;;2.60;2.17;;;13.10;99.90;;;;;;6220827;28;20056;-79
2021/09/20 05:27:07;;;;;;;3.78;2.22;;;13.10;99.90;;;;;;6238681;28;20033;-79
2021/09/20 05:30:09;;;;;;;5.82;3.38;;;13.00;99.90;;;;;;6210747;28;20030;-79
2021/09/20 05:33:09;;;;;;;2.60;2.40;;;12.90;99.90;;;;;;6220741;28;20053;-79
2021/09/20 05:36:10;;;;;;;2.53;2.20;;;13.00;99.90;;;;;;6225720;28;20488;-77
2021/09/20 05:39:11;;;;;;;2.53;2.17;;;13.00;99.90;;;;;;6226548;28;20383;-80
2021/09/20 05:42:11;;;;;;;19.02;13.98;;;13.10;99.90;;;;;;6224027;28;20096;-77
2021/09/20 05:45:12;;;;;;;4.95;3.38;;;13.10;99.90;;;;;;6219095;28;20052;-76
2021/09/20 05:48:15;;;;;;;2.75;2.40;;;13.10;99.90;;;;;;6226747;28;20378;-80
2021/09/20 05:51:16;;;;;;;2.97;2.05;;;13.20;99.90;;;;;;6226893;28;20053;-77
2021/09/20 05:54:16;;;;;;;3.70;2.75;;;13.40;99.90;;;;;;6227080;28;20039;-77
2021/09/20 05:57:17;;;;;;;3.20;2.30;;;13.20;99.90;;;;;;6226766;28;20033;-77
2021/09/20 06:00:17;;;;;;;2.70;2.33;;;13.50;99.90;;;;;;6244326;28;20033;-77
2021/09/20 06:03:18;;;;;;;4.75;2.85;;;13.50;99.90;;;;;;6227031;28;20037;-79
2021/09/20 06:06:19;;;;;;;5.43;2.13;;;13.50;99.90;;;;;;6244616;28;20037;-78
2021/09/20 06:09:20;;;;;;;2.70;2.33;;;13.60;99.90;;;;;;6244363;28;20061;-78
2021/09/20 06:12:21;;;;;;;2.72;2.45;;;13.60;99.90;;;;;;6244078;28;20357;-77
2021/09/20 06:15:21;;;;;;;4.07;2.40;;;13.60;99.90;;;;;;6244270;28;20033;-81
2021/09/20 06:18:22;;;;;;;3.15;1.85;;;13.50;99.90;;;;;;6226379;28;20100;-81
2021/09/20 06:21:22;;;;;;;2.40;2.20;;;13.50;99.90;;;;;;6193201;28;20021;-81
2021/09/20 06:24:23;;;;;;;3.38;2.20;;;13.60;99.90;;;;;;6209370;28;20037;-78
2021/09/20 06:27:24;;;;;;;2.25;2.03;;;13.60;99.90;;;;;;6240919;28;20113;-78
2021/09/20 06:30:24;;;;;;;3.22;2.22;;;13.60;99.90;;;;;;6221262;28;20033;-78
2021/09/20 06:33:25;;;;;;;3.35;2.03;;;13.60;99.90;;;;;;6226031;28;20498;-77
2021/09/20 06:36:25;;;;;;;2.40;2.20;;;13.60;99.90;;;;;;6225749;28;20038;-79
2021/09/20 06:39:26;;;;;;;2.92;2.60;;;13.60;99.90;;;;;;6243844;28;20083;-79
2021/09/20 06:42:27;;;;;;;3.00;2.67;;;13.70;99.90;;;;;;6209646;28;20028;-79
2021/09/20 06:45:27;;;;;;;2.85;2.65;;;15.80;99.90;;;;;;6209099;28;20033;-78
2021/09/20 06:48:28;;;;;;;3.85;2.40;;;13.80;99.90;;;;;;6202072;28;20051;-81
2021/09/20 06:51:28;;;;;;;4.10;2.80;;;13.90;99.90;;;;;;6225965;28;20490;-79
2021/09/20 06:54:29;;;;;;;3.10;2.80;;;13.90;99.90;;;;;;6225344;28;20043;-79
2021/09/20 06:57:30;;;;;;;5.68;2.50;;;14.00;99.90;;;;;;6225992;28;20042;-78
2021/09/20 07:00:31;;;;;;;3.72;2.42;;;14.10;99.90;;;;;;6225176;28;20057;-79
2021/09/20 07:03:31;;;;;;;3.25;2.50;;;14.20;99.90;;;;;;6208948;28;20025;-79
2021/09/20 07:06:32;;;;;;;4.43;2.40;;;14.40;99.90;;;;;;6224932;28;20410;-79
2021/09/20 07:09:32;;;;;;;3.17;2.53;;;14.40;99.90;;;;;;6208368;28;20018;-78
2021/09/20 07:12:33;;;;;;;2.58;2.38;;;14.50;99.90;;;;;;6242628;28;20116;-79
2021/09/20 07:15:33;;;;;;;2.70;2.50;;;14.60;99.90;;;;;;6206688;28;20045;-79
2021/09/20 07:18:34;;;;;;;3.47;2.35;;;14.70;99.90;;;;;;6225131;28;20046;-78
2021/09/20 07:21:35;;;;;;;4.13;2.40;;;14.60;99.90;;;;;;6243360;28;20030;-79
2021/09/20 07:24:35;;;;;;;2.55;2.30;;;15.20;99.90;;;;;;6225010;28;20033;-79
2021/09/20 07:27:36;;;;;;;2.60;1.92;;;;;;;;;;6220222;28;20056;-78
2021/09/20 07:30:39;;;;;;;2.50;2.30;;;14.50;99.90;;;;;;6225923;28;20122;-79
2021/09/20 07:33:40;;;;;;;5.07;2.58;;;14.70;99.90;;;;;;6225244;28;20030;-78
2021/09/20 07:36:40;;;;;;;3.17;2.45;;;14.50;99.90;;;;;;6225157;28;20075;-79
2021/09/20 07:39:42;;;;;;;3.88;2.45;;;;;;;;;;6208445;28;20026;-82
2021/09/20 07:42:42;;;;;;;2.50;2.30;;;14.80;99.90;;;;;;6225333;28;20021;-80
2021/09/20 07:45:44;;;;;;;3.08;2.08;;;;;;;;;;6208661;28;20068;-82
2021/09/20 07:48:44;;;;;;;2.60;2.40;;;15.00;99.90;;;;;;6224864;28;20408;-82
2021/09/20 07:51:45;;;;;;;2.30;2.10;;;;;;;;;;6192087;28;20033;-78
2021/09/20 07:54:46;;;;;;;2.92;2.40;;;15.10;99.90;;;;;;6241679;28;20467;-78
2021/09/20 07:57:47;;;;;;;3.60;2.65;;;15.00;99.90;;;;;;6224880;28;20042;-78
2021/09/20 08:00:48;;;;;;;3.25;2.13;;;14.90;99.90;;;;;;6223996;28;20036;-79
2021/09/20 08:03:48;;;;;;;3.65;2.40;;;15.10;99.90;;;;;;6224657;28;20088;-78
2021/09/20 08:06:49;;;;;;;2.42;2.22;;;14.90;99.90;;;;;;6224176;28;20376;-78
2021/09/20 08:09:50;;;;;;;2.30;2.10;;;14.90;99.90;;;;;;6221869;28;20079;-79
2021/09/20 08:12:50;;;;;;;2.35;2.13;;;14.90;99.90;;;;;;6224704;28;20036;-78
2021/09/20 08:15:51;;;;;;;2.80;2.58;;;14.90;99.90;;;;;;6224421;28;20033;-78
2021/09/20 08:18:51;;;;;;;2.40;2.20;;;15.00;99.90;;;;;;6208183;28;20045;-79
2021/09/20 08:21:52;;;;;;;2.78;2.47;;;15.10;99.90;;;;;;6228400;28;20580;-78
2021/09/20 08:24:53;;;;;;;2.63;2.30;;;15.10;99.90;;;;;;6211943;28;20033;-78
2021/09/20 08:27:53;;;;;;;3.10;2.30;;;15.20;99.90;;;;;;6221613;28;20091;-78
2021/09/20 08:30:54;;;;;;;2.65;2.35;;;15.20;99.90;;;;;;6228725;28;20033;-78
2021/09/20 08:33:54;;;;;;;2.80;1.83;;;15.20;99.90;;;;;;6246579;28;20033;-77
2021/09/20 08:36:55;;;;;;;2.30;2.10;;;15.30;99.90;;;;;;6245985;28;20033;-78
2021/09/20 08:39:55;;;;;;;1.58;1.48;;;15.20;99.90;;;;;;6228399;28;20025;-77
2021/09/20 08:42:56;;;;;;;3.25;2.20;;;15.40;99.90;;;;;;6228067;28;20021;-77
2021/09/20 08:46:01;;;;;;;2.42;2.10;;;15.50;99.90;;;;;;6211892;28;20360;-77
2021/09/20 08:49:01;;;;;;;2.30;2.10;;;15.40;99.90;;;;;;6211248;28;20080;-77
2021/09/20 08:52:02;;;;;;;3.70;2.20;;;15.60;99.90;;;;;;6211846;28;20780;-77
2021/09/20 08:55:04;;;;;;;2.40;2.20;;;15.60;99.90;;;;;;6240818;28;20128;-77
2021/09/20 08:58:04;;;;;;;2.50;2.30;;;15.60;99.90;;;;;;6211920;28;20030;-77
2021/09/20 09:01:05;;;;;;;2.50;2.10;;;15.70;99.90;;;;;;6246057;28;20033;-77
2021/09/20 09:04:32;;;;;;;2.45;2.25;;;15.80;99.90;;;;;;6228232;28;20133;-78
2021/09/20 09:07:32;;;;;;;3.75;2.30;;;16.00;99.90;;;;;;6227379;28;20021;-77
2021/09/20 09:10:35;;;;;;;3.08;1.85;;;15.90;99.90;;;;;;6211502;28;20364;-77
2021/09/20 09:13:36;;;;;;;;;;;16.00;99.90;;;;;;6207246;28;20025;-77
2021/09/20 09:16:37;;;;;;;1.50;1.40;;;16.20;99.90;;;;;;6210795;28;20370;-77
2021/09/20 09:19:42;;;;;;;2.15;1.67;;;16.20;99.90;;;;;;6227529;28;20037;-77
2021/09/20 09:22:46;;;;;;;2.00;1.80;;;16.40;99.90;;;;;;6228016;28;20432;-77
2021/09/20 09:25:48;;;;;;;2.22;2.03;;;16.60;99.90;;;;;;6227886;28;20025;-78
2021/09/20 09:28:52;;;;;;;2.55;1.88;;;16.90;99.90;;;;;;6227565;28;20043;-77
2021/09/20 09:31:54;;;;;;;1.55;1.45;;;17.20;99.90;;;;;;6194883;28;20055;-78
2021/09/20 09:34:56;;;;;;;1.70;1.60;;;17.50;99.90;;;;;;6226644;28;20041;-77
2021/09/20 09:38:04;;;;;;;1.95;1.70;;;17.70;99.90;;;;;;6227116;28;20048;-78
2021/09/20 09:41:05;;;;;;;2.03;1.90;;;17.60;99.90;;;;;;6227626;28;20029;-77
2021/09/20 09:44:11;;;;;;;2.30;2.10;;;17.90;99.90;;;;;;6219612;28;20025;-78
2021/09/20 09:47:26;;;;;;;2.67;2.20;;;17.90;99.90;;;;;;6227530;28;20032;-77
2021/09/20 09:50:27;;;;;;;3.67;2.05;;;17.90;99.90;;;;;;6210607;28;20337;-78
2021/09/20 09:53:36;;;;;;;2.10;2.00;;;18.10;99.90;;;;;;6226913;28;20104;-77
2021/09/20 09:56:36;;;;;;;2.35;2.15;;;18.10;99.90;;;;;;6210416;28;20033;-78
2021/09/20 09:59:37;;;;;;;2.47;2.22;;;17.80;99.90;;;;;;6226523;28;20029;-78
2021/09/20 10:02:40;;;;;;;3.17;2.10;;;17.80;99.90;;;;;;6227083;28;20044;-77
2021/09/20 10:05:42;;;;;;;2.67;1.90;;;17.90;99.90;;;;;;6209677;28;20029;-78
2021/09/20 10:08:47;;;;;;;2.35;2.15;;;17.70;99.90;;;;;;6226570;28;20112;-78
2021/09/20 10:11:48;;;;;;;2.60;2.33;;;18.00;99.90;;;;;;6210147;28;20399;-78
2021/09/20 10:14:49;;;;;;;2.35;2.15;;;17.60;99.90;;;;;;6226384;28;20045;-78
2021/09/20 10:17:50;;;;;;;2.60;2.27;;;;;;;;;;6226514;28;20081;-78
2021/09/20 10:20:51;;;;;;;3.88;2.30;;;;;;;;;;6226304;28;20030;-81
2021/09/20 10:23:53;;;;;;;3.47;2.20;;;17.60;99.90;;;;;;6225864;28;20029;-79
2021/09/20 10:26:54;;;;;;;3.22;2.38;;;17.60;99.90;;;;;;6225953;28;20021;-81
2021/09/20 10:30:28;;;;;;;3.35;2.20;;;17.40;99.90;;;;;;6195449;28;20038;-82
2021/09/20 10:33:28;;;;;;;3.25;2.50;;;17.50;99.90;;;;;;6138657;29;20497;-85
2021/09/20 10:36:52;;;;;;;2.10;2.00;;;17.30;99.90;;;;;;6111545;29;20106;-81
2021/09/20 10:40:04;;;;;;;2.40;2.10;;;17.30;99.90;;;;;;6112580;29;20143;-82
2021/09/20 10:43:05;;;;;;;2.28;2.08;;;;;;;;;;6096284;29;20549;-82
2021/09/20 10:46:23;;;;;;;2.15;1.95;;;17.50;99.90;;;;;;6127129;29;20023;-81
2021/09/20 10:49:25;;;;;;;2.33;2.13;;;;;;;;;;6110506;29;20039;-80
2021/09/20 10:52:26;;;;;;;;;;;17.70;99.90;;;;;;6127249;29;20026;-82
2021/09/20 10:55:26;;;;;;;2.28;2.08;;;;;;;;;;6143072;29;19923;-81
2021/09/20 10:58:28;;;;;;;3.72;2.35;;;17.70;99.90;;;;;;6126685;29;20035;-80
2021/09/20 11:01:31;;;;;;;2.60;2.30;;;16.50;99.90;;;;;;6109597;29;20143;-81
2021/09/20 11:04:35;;;;;;;2.60;2.40;;;17.90;99.90;;;;;;6126667;29;20382;-82
2021/09/20 11:07:48;;;;;;;3.33;2.38;;;18.30;99.90;;;;;;6112011;29;20418;-82
2021/09/20 11:10:49;;;;;;;2.90;2.70;;;18.60;99.90;;;;;;6190145;28;20042;-82
2021/09/20 11:14:06;;;;;;;2.60;2.40;;;18.80;99.90;;;;;;6208683;28;20021;-81
2021/09/20 11:17:19;;;;;;;4.13;2.83;;;19.10;99.90;;;;;;6206864;28;20072;-82
2021/09/20 11:20:29;;;;;;;4.03;3.00;;;19.50;99.90;;;;;;6238507;28;20052;-82
2021/09/20 11:23:35;;;;;;;3.28;2.97;;;19.80;99.90;;;;;;6205420;28;20025;-81
2021/09/20 11:26:36;;;;;;;3.35;3.05;;;20.10;99.90;;;;;;6208446;28;20105;-81
2021/09/20 11:29:36;;;;;;;4.45;3.10;;;20.30;99.90;;;;;;6201259;28;20114;-81
2021/09/20 11:32:45;;;;;;;3.58;2.97;;;20.20;99.90;;;;;;6192566;28;20033;-86
2021/09/20 11:35:46;;;;;;;3.03;2.72;;;20.50;99.90;;;;;;6208378;28;20033;-85
2021/09/20 11:38:47;;;;;;;3.60;3.20;;;20.50;99.90;;;;;;6210944;28;20045;-84
2021/09/20 11:41:58;;;;;;;5.15;3.00;;;20.50;99.90;;;;;;6199839;28;20056;-85
2021/09/20 11:44:59;;;;;;;2.95;2.67;;;20.60;99.90;;;;;;6208740;28;20033;-84
2021/09/20 11:48:01;;;;;;;4.28;3.25;;;20.70;99.90;;;;;;6191874;28;20187;-85
2021/09/20 11:51:02;;;;;;;3.72;3.40;;;20.30;99.90;;;;;;6201121;28;20025;-84
2021/09/20 11:54:04;;;;;;;4.00;3.47;;;20.30;99.90;;;;;;6193606;28;20037;-83
2021/09/20 11:57:15;;;;;;;4.63;3.17;;;20.40;99.90;;;;;;6213192;28;20036;-85
2021/09/20 12:00:17;;;;;;;5.43;2.95;;;20.40;99.90;;;;;;6200581;28;20033;-79
2021/09/20 12:03:22;;;;;;;3.50;3.20;;;20.70;99.90;;;;;;6196605;28;20033;-79
2021/09/20 12:06:27;;;;;;;5.13;3.03;;;21.00;99.90;;;;;;6213730;28;20064;-81
2021/09/20 12:09:28;;;;;;;4.53;3.40;;;21.20;99.90;;;;;;6222448;28;20026;-80
2021/09/20 12:12:35;;;;;;;3.83;3.42;;;21.20;99.90;;;;;;6210608;28;20379;-80
2021/09/20 12:15:37;;;;;;;4.45;3.50;;;21.40;99.90;;;;;;6246273;28;20033;-80
2021/09/20 12:18:38;;;;;;;4.20;3.67;;;21.40;99.90;;;;;;6193760;28;20053;-80
2021/09/20 12:21:39;;;;;;;3.80;3.40;;;21.50;99.90;;;;;;6169955;28;20081;-80
2021/09/20 12:24:39;;;;;;;6.90;3.80;;;21.50;99.90;;;;;;6189248;28;20029;-80
2021/09/20 12:27:40;;;;;;;4.18;3.50;;;;;;;;;;6225787;28;20033;-86
2021/09/20 12:30:54;;;;;;;3.60;3.25;;;21.30;99.90;;;;;;6201298;28;20033;-85
2021/09/20 12:33:55;;;;;;;4.25;3.40;;;;;;;;;;6195933;28;20037;-85
2021/09/20 12:36:57;;;;;;;4.15;3.50;;;20.80;99.90;;;;;;6215707;28;20068;-85
2021/09/20 12:40:22;;;;;;;5.40;3.38;;;20.20;99.90;;;;;;6195021;28;20453;-84
2021/09/20 12:43:29;;;;;;;4.32;3.55;;;20.00;99.90;;;;;;6183915;28;20022;-86
2021/09/20 12:46:30;;;;;;;4.85;3.80;;;;;;;;;;6182225;28;20030;-85
2021/09/20 12:49:31;;;;;;;4.00;3.60;;;;;;;;;;6205032;28;20120;-85
2021/09/20 12:52:49;;;;;;;5.15;3.97;;;19.50;99.90;;;;;;6204773;28;20099;-85
2021/09/20 12:55:50;;;;;;;5.28;4.45;;;19.50;99.90;;;;;;6185534;28;20100;-86
2021/09/20 12:58:51;;;;;;;4.10;3.70;;;19.50;99.90;;;;;;6183920;28;20094;-84
2021/09/20 13:01:53;;;;;;;4.10;3.60;;;19.50;99.90;;;;;;6186542;28;20033;-85
2021/09/20 13:04:58;;;;;;;4.18;3.72;;;19.70;99.90;;;;;;6191444;28;20111;-86
2021/09/20 13:08:03;;;;;;;6.22;3.80;;;19.90;99.90;;;;;;6211324;28;20403;-84
2021/09/20 13:11:17;;;;;;;5.50;3.85;;;19.90;99.90;;;;;;6204975;28;20422;-84
2021/09/20 13:14:23;;;;;;;5.43;3.85;;;20.10;99.90;;;;;;6195338;28;20120;-84
2021/09/20 13:17:53;;;;;;;4.72;4.32;;;20.20;99.50;;;;;;6203798;28;20107;-83
2021/09/20 13:20:54;;;;;;;7.50;3.58;;;20.20;99.60;;;;;;6145063;29;20035;-84
2021/09/20 13:23:55;;;;;;;4.57;4.00;;;;;;;;;;6112852;29;20050;-84
2021/09/20 13:26:55;;;;;;;5.68;3.90;;;20.80;99.90;;;;;;6112922;29;20038;-84
2021/09/20 13:29:56;;;;;;;4.53;3.20;;;20.30;99.90;;;;;;6113037;29;20027;-84
2021/09/20 13:32:57;;;;;;;3.88;3.40;;;;;;;;;;6100093;29;20031;-81
2021/09/20 13:36:03;;;;;;;5.15;3.72;;;20.30;99.90;;;;;;6144026;29;20898;-79
2021/09/20 13:39:04;;;;;;;5.25;3.78;;;20.30;99.90;;;;;;6128449;29;20031;-79
2021/09/20 13:42:05;;;;;;;6.60;3.97;;;20.30;99.90;;;;;;6113154;29;20098;-78
2021/09/20 13:45:06;;;;;;;5.47;4.50;;;20.40;99.90;;;;;;6113264;29;20035;-79
2021/09/20 13:48:09;;;;;;;4.80;3.53;;;20.00;99.90;;;;;;6144696;29;20047;-79
2021/09/20 13:51:09;;;;;;;3.67;3.35;;;20.00;99.90;;;;;;6128594;29;20047;-79
2021/09/20 13:54:10;;;;;;;5.45;4.07;;;20.00;99.90;;;;;;6128537;29;20508;-79
2021/09/20 13:57:10;;;;;;;7.30;3.45;;;19.70;99.90;;;;;;6183733;28;20068;-81
2021/09/20 14:00:12;;;;;;;6.93;3.45;;;19.60;99.90;;;;;;6226691;28;20080;-77
2021/09/20 14:03:12;;;;;;;6.45;4.28;;;19.40;99.90;;;;;;6226024;28;20455;-78
2021/09/20 14:06:13;;;;;;;4.22;3.53;;;19.30;99.90;;;;;;6225170;28;20076;-79
2021/09/20 14:09:14;;;;;;;9.32;4.32;;;19.20;99.90;;;;;;6243435;28;20033;-79
2021/09/20 14:12:14;;;;;;;5.35;4.32;;;19.10;99.90;;;;;;6226402;28;20069;-80
2021/09/20 14:15:19;;;;;;;5.85;4.28;;;19.00;99.90;;;;;;6226146;28;20345;-80
2021/09/20 14:18:20;;;;;;;5.68;4.28;;;18.80;99.90;;;;;;6208802;28;20472;-79
2021/09/20 14:21:21;;;;;;;4.93;4.03;;;18.70;99.90;;;;;;6210300;28;20026;-80
2021/09/20 14:24:21;;;;;;;5.07;3.80;;;18.60;99.90;;;;;;6226233;28;20030;-79
2021/09/20 14:27:22;;;;;;;5.85;4.53;;;;;;;;;;6225982;28;20037;-84
2021/09/20 14:30:23;;;;;;;5.32;4.82;;;;;;;;;;6209220;28;20131;-83
2021/09/20 14:33:24;;;;;;;6.45;4.40;;;18.60;99.90;;;;;;6226053;28;20055;-84
2021/09/20 14:36:25;;;;;;;6.05;4.78;;;18.50;99.90;;;;;;6209230;28;20079;-83
2021/09/20 14:39:26;;;;;;;4.85;4.35;;;;;;;;;;6209614;28;20029;-83
2021/09/20 14:42:26;;;;;;;4.85;4.25;;;18.40;99.90;;;;;;6226395;28;20036;-84
2021/09/20 14:45:28;;;;;;;6.07;4.70;;;;;;;;;;6193150;28;20022;-85
2021/09/20 14:48:28;;;;;;;5.43;4.90;;;;;;;;;;6208746;28;20044;-86
2021/09/20 14:51:29;;;;;;;4.95;4.40;;;;;;;;;;6208273;28;20404;-84
2021/09/20 14:54:32;;;;;;;5.28;4.13;;;;;;;;;;6225083;28;20037;-86
2021/09/20 14:57:32;;;;;;;7.57;4.75;;;18.20;99.90;;;;;;6208674;28;20038;-85
2021/09/20 15:00:34;;;;;;;5.07;4.57;;;;;;;;;;6193087;28;20029;-85
2021/09/20 15:03:35;;;;;;;4.93;4.43;;;;;;;;;;6209424;28;20018;-83
2021/09/20 15:06:36;;;;;;;5.53;5.03;;;17.90;99.90;;;;;;6209106;28;20400;-84
2021/09/20 15:09:37;;;;;;;4.80;4.30;;;;;;;;;;6209072;28;20037;-87
2021/09/20 15:12:38;;;;;;;6.38;4.43;;;;;;;;;;6207548;28;20052;-87
2021/09/20 15:15:40;;;;;;;9.13;4.75;;;;;;;;;;6209297;28;20483;-85
2021/09/20 15:18:40;;;;;;;4.70;4.20;;;17.60;99.90;;;;;;6206240;28;20164;-84
2021/09/20 15:21:41;;;;;;;5.63;4.97;;;;;;;;;;6197619;28;20444;-84
2021/09/20 15:24:42;;;;;;;5.32;4.82;;;;;;;;;;6183232;28;20080;-84
2021/09/20 15:27:43;;;;;;;5.60;5.00;;;17.70;99.90;;;;;;6199346;28;20104;-83
2021/09/20 15:30:44;;;;;;;7.97;5.55;;;17.70;99.90;;;;;;6172102;28;20109;-84
2021/09/20 15:33:45;;;;;;;5.68;5.05;;;17.60;99.90;;;;;;6188604;28;20353;-83
2021/09/20 15:36:46;;;;;;;5.80;4.88;;;;;;;;;;6188968;28;20045;-83
2021/09/20 15:39:47;;;;;;;5.50;5.00;;;;;;;;;;6189312;28;20053;-84
2021/09/20 15:42:55;;;;;;;6.72;5.47;;;17.40;99.90;;;;;;6188562;28;20030;-84
2021/09/20 15:45:56;;;;;;;6.70;5.22;;;;;;;;;;6205090;28;20461;-83
2021/09/20 15:48:57;;;;;;;5.80;5.18;;;;;;;;;;6198977;28;20357;-85
2021/09/20 15:51:57;;;;;;;7.68;5.20;;;17.30;99.90;;;;;;6182998;28;20022;-84
2021/09/20 15:54:58;;;;;;;5.63;5.13;;;17.20;99.90;;;;;;6183165;28;20085;-84
2021/09/20 15:57:59;;;;;;;7.75;5.65;;;17.20;99.90;;;;;;6188006;28;20055;-83
2021/09/20 16:01:00;;;;;;;6.65;5.70;;;;;;;;;;6172228;28;20046;-83
2021/09/20 16:04:02;;;;;;;6.05;5.50;;;17.00;99.90;;;;;;6188372;28;20014;-83
2021/09/20 16:07:04;;;;;;;8.75;5.75;;;17.30;99.90;;;;;;6169904;28;20100;-88
2021/09/20 16:10:06;;;;;;;6.40;5.80;;;16.70;99.90;;;;;;6159362;28;20038;-86